Time;durP1;ratioP1;P1;durP2;ratioP2;P2;SDS_P1;SDS_P2;PMS_P1;PMS_P2;Temp;Humidity;BMP_temperature;BMP_pressure;BME280_temperature;BME280_humidity;BME280_pressure;Samples;Min_cycle;Max_cycle;Signal;HPM_P1;HPM_P2
2022/06/08 00:02:19;;;;;;;14.68;8.03;;;;;;;17.75;100.00;99836.66;1713066;84;21011;-75
2022/06/08 00:04:48;;;;;;;16.90;8.40;;;;;;;17.71;100.00;99839.55;1712694;84;21070;-76
2022/06/08 00:07:15;;;;;;;16.27;8.65;;;;;;;17.68;100.00;99828.22;1712813;84;21055;-76
2022/06/08 00:09:43;;;;;;;17.57;8.83;;;;;;;17.64;100.00;99831.93;1712744;84;21018;-76
2022/06/08 00:12:12;;;;;;;16.80;8.65;;;;;;;17.61;100.00;99829.09;1712721;84;21058;-76
2022/06/08 00:14:39;;;;;;;16.60;7.95;;;;;;;17.58;100.00;99833.66;1712458;84;21038;-76
2022/06/08 00:17:07;;;;;;;16.35;8.65;;;;;;;17.56;100.00;99830.83;1712515;84;21031;-77
2022/06/08 00:19:34;;;;;;;16.70;8.90;;;;;;;17.52;100.00;99831.80;1712560;82;21003;-76
2022/06/08 00:22:03;;;;;;;18.42;9.25;;;;;;;17.48;100.00;99827.02;1712895;84;21026;-75
2022/06/08 00:24:30;;;;;;;17.67;8.93;;;;;;;17.41;100.00;99823.79;1712727;84;21022;-76
2022/06/08 00:26:57;;;;;;;19.98;9.28;;;;;;;17.36;100.00;99821.41;1712919;84;21050;-76
2022/06/08 00:29:24;;;;;;;17.32;8.40;;;;;;;17.30;100.00;99827.23;1712916;84;21010;-76
2022/06/08 00:31:52;;;;;;;20.12;9.23;;;;;;;17.26;100.00;99818.65;1712724;84;21031;-75
2022/06/08 00:34:19;;;;;;;23.92;9.15;;;;;;;17.22;100.00;99818.76;1718723;83;21602;-76
2022/06/08 00:36:47;;;;;;;17.12;8.85;;;;;;;17.20;100.00;99824.15;1720632;83;20994;-76
2022/06/08 00:39:14;;;;;;;21.23;9.13;;;;;;;17.17;100.00;99817.75;1720505;83;21006;-77
2022/06/08 00:41:55;;;;;;;16.20;8.73;;;;;;;17.14;100.00;99814.08;1721681;83;21065;-77
2022/06/08 00:44:30;;;;;;;19.10;8.75;;;;;;;17.11;100.00;99809.91;1669272;86;21049;-76
2022/06/08 00:46:58;;;;;;;19.10;8.83;;;;;;;17.06;100.00;99813.28;1668411;86;21029;-77
2022/06/08 00:49:37;;;;;;;18.48;9.13;;;;;;;17.03;100.00;99811.02;1667505;86;21097;-78
2022/06/08 00:52:05;;;;;;;16.50;8.60;;;;;;;17.01;100.00;99815.83;1580029;91;21058;-78
2022/06/08 00:54:36;;;;;;;17.73;9.08;;;;;;;16.97;100.00;99809.68;1579602;91;21042;-78
2022/06/08 00:57:14;;;;;;;17.65;9.18;;;;;;;16.91;100.00;99803.71;1579846;91;21025;-78
2022/06/08 00:59:49;;;;;;;18.48;9.55;;;;;;;16.85;100.00;99806.79;1542912;93;21069;-79
2022/06/08 01:02:17;;;;;;;19.12;9.85;;;;;;;16.77;100.00;99806.49;1543200;93;21138;-77
2022/06/08 01:04:43;;;;;;;22.48;11.00;;;;;;;16.71;100.00;99804.61;1543159;93;21193;-78
2022/06/08 01:07:16;;;;;;;18.92;10.13;;;;;;;16.66;100.00;99798.46;1543241;93;21113;-77
2022/06/08 01:09:43;;;;;;;17.73;10.00;;;;;;;16.62;100.00;99798.56;1543177;93;21097;-78
2022/06/08 01:12:19;;;;;;;22.07;10.58;;;;;;;16.58;100.00;99801.42;1543183;93;21519;-77
2022/06/08 01:14:48;;;;;;;20.17;10.32;;;;;;;16.58;100.00;99796.50;1532622;93;21079;-76
2022/06/08 01:17:19;;;;;;;18.20;9.98;;;;;;;16.55;100.00;99795.56;1520000;94;21162;-77
2022/06/08 01:19:48;;;;;;;17.20;9.60;;;;;;;16.54;100.00;99789.78;1519922;93;21087;-77
2022/06/08 01:22:18;;;;;;;18.87;10.03;;;;;;;16.51;100.00;99793.25;1506917;95;21531;-78
2022/06/08 01:24:49;;;;;;;19.82;10.23;;;;;;;16.47;100.00;99789.30;1526920;94;21615;-76
2022/06/08 01:27:23;;;;;;;19.95;10.20;;;;;;;16.44;100.00;99793.81;1507115;94;21122;-76
2022/06/08 01:30:02;;;;;;;19.77;10.35;;;;;;;16.43;100.00;99792.16;1513290;95;21099;-74
2022/06/08 01:32:39;;;;;;;19.20;10.25;;;;;;;16.42;100.00;99785.00;1446866;99;21157;-75
2022/06/08 01:35:31;;;;;;;21.20;10.58;;;;;;;16.43;100.00;99792.16;1446945;99;21218;-76
2022/06/08 01:38:16;;;;;;;21.82;9.88;;;;;;;16.45;100.00;99791.91;1442901;94;21141;-76
2022/06/08 01:41:12;;;;;;;21.93;10.90;;;;;;;16.45;100.00;99785.95;1454130;98;21153;-76
2022/06/08 01:43:59;;;;;;;18.95;9.90;;;;;;;16.44;100.00;99785.63;1444873;99;21081;-75
2022/06/08 01:46:34;;;;;;;20.05;9.63;;;;;;;16.43;100.00;99791.29;1468967;98;21097;-75
2022/06/08 01:49:07;;;;;;;25.02;11.10;;;;;;;16.42;100.00;99789.09;1493029;95;21091;-76
2022/06/08 01:52:15;;;;;;;24.18;10.58;;;;;;;16.42;100.00;99782.27;1511077;95;21088;-75
2022/06/08 01:55:22;;;;;;;19.62;9.95;;;;;;;16.43;100.00;99786.70;1511172;95;21144;-76
2022/06/08 01:58:11;;;;;;;21.48;10.28;;;;;;;16.43;100.00;99783.97;1511142;95;21154;-76
2022/06/08 02:00:46;;;;;;;21.07;10.08;;;;;;;16.45;100.00;99780.99;1511030;95;21103;-76
2022/06/08 02:03:34;;;;;;;20.77;10.15;;;;;;;16.44;100.00;99785.63;1533973;91;21037;-76
2022/06/08 02:06:10;;;;;;;22.50;10.40;;;;;;;16.42;100.00;99784.18;1572845;91;21043;-75
2022/06/08 02:08:59;;;;;;;18.05;9.60;;;;;;;16.42;100.00;99775.98;1615706;89;21031;-75
2022/06/08 02:11:46;;;;;;;21.05;10.85;;;;;;;16.42;100.00;99782.81;1516440;95;21663;-75
2022/06/08 02:14:38;;;;;;;20.72;11.35;;;;;;;16.42;100.00;99778.19;1511778;95;21631;-76
2022/06/08 02:17:31;;;;;;;22.48;11.45;;;;;;;16.41;100.00;99766.94;1497738;96;21102;-76
2022/06/08 02:20:16;;;;;;;22.60;10.43;;;;;;;16.40;100.00;99774.02;1497445;96;21612;-75
2022/06/08 02:22:57;;;;;;;21.80;10.85;;;;;;;16.39;100.00;99766.86;1514620;95;21061;-74
2022/06/08 02:25:33;;;;;;;27.32;11.65;;;;;;;16.39;100.00;99772.32;1504055;95;21602;-75
2022/06/08 02:28:10;;;;;;;23.87;11.53;;;;;;;16.39;100.00;99774.52;1525364;91;21099;-74
2022/06/08 02:30:52;;;;;;;22.60;11.65;;;;;;;16.39;100.00;99772.32;1562398;91;21199;-75
2022/06/08 02:36:26;;;;;;;21.97;10.55;;;;;;;16.37;100.00;99776.62;1499088;95;21077;-74
2022/06/08 02:39:07;;;;;;;31.87;13.83;;;;;;;16.38;100.00;99772.00;1497982;92;21589;-75
2022/06/08 02:41:35;;;;;;;32.20;14.50;;;;;;;16.41;100.00;99771.03;1535714;93;21094;-75
2022/06/08 02:44:09;;;;;;;28.87;13.40;;;;;;;16.44;100.00;99765.16;1535533;93;21182;-75
2022/06/08 02:46:59;;;;;;;25.92;12.20;;;;;;;16.49;100.00;99772.17;1535606;93;21588;-76
2022/06/08 02:49:28;;;;;;;23.50;11.53;;;;;;;16.53;100.00;99776.67;1535680;93;21680;-75
2022/06/08 02:52:00;;;;;;;22.90;11.73;;;;;;;16.62;100.00;99782.19;1535481;93;21618;-74
2022/06/08 02:54:27;;;;;;;31.17;12.98;;;;;;;16.73;100.00;99783.93;1535635;93;21127;-74
2022/06/08 02:57:29;;;;;;;25.75;12.63;;;;;;;16.84;100.00;99790.94;1535333;93;21162;-75
2022/06/08 03:00:19;;;;;;;23.75;11.25;;;;;;;16.95;100.00;99789.95;1535768;93;21067;-74
2022/06/08 03:03:12;;;;;;;23.65;11.18;;;;;;;17.12;100.00;99802.00;1535345;93;21083;-75
2022/06/08 03:05:57;;;;;;;24.53;12.70;;;;;;;17.28;100.00;99806.10;1535665;93;21552;-75
2022/06/08 03:08:31;;;;;;;25.75;12.85;;;;;;;17.40;100.00;99803.50;1550642;92;21164;-74
2022/06/08 03:11:00;;;;;;;25.27;13.18;;;;;;;17.52;100.00;99807.73;1496025;96;21079;-73
2022/06/08 03:13:31;;;;;;;23.10;12.80;;;;;;;17.61;100.00;99813.23;1495944;96;21075;-74
2022/06/08 03:16:02;;;;;;;26.40;12.25;;;;;;;17.69;100.00;99812.11;1470824;98;21048;-75
2022/06/08 03:18:31;;;;;;;24.00;11.95;;;;;;;17.76;100.00;99811.52;1499294;95;21114;-75
2022/06/08 03:21:01;;;;;;;25.70;12.68;;;;;;;17.85;100.00;99812.93;1512340;95;21258;-75
2022/06/08 03:23:31;;;;;;;21.70;11.78;;;;;;;17.92;100.00;99809.63;1511615;95;21537;-76
2022/06/08 03:25:58;;;;;;;23.22;12.13;;;;;;;17.98;100.00;99812.81;1525843;94;21097;-75
2022/06/08 03:28:25;;;;;;;20.57;11.00;;;;;;;18.09;100.00;99811.78;1527148;94;21082;-75
2022/06/08 03:30:54;;;;;;;24.18;12.50;;;;;;;18.21;100.00;99815.44;1527098;94;21166;-75
2022/06/08 03:33:21;;;;;;;22.48;11.50;;;;;;;18.31;100.00;99808.91;1555406;92;21662;-75
2022/06/08 03:35:49;;;;;;;25.40;12.85;;;;;;;18.40;100.00;99810.28;1561333;92;21129;-75
2022/06/08 03:38:17;;;;;;;50.83;24.85;;;;;;;18.50;100.00;99810.27;1561624;92;21604;-75
2022/06/08 03:40:45;;;;;;;47.48;24.52;;;;;;;18.60;100.00;99799.62;1561382;92;21152;-75
2022/06/08 03:43:11;;;;;;;61.45;30.70;;;;;;;18.69;100.00;99798.23;1561621;92;21093;-75
2022/06/08 03:45:41;;;;;;;40.12;20.40;;;;;;;18.78;100.00;99786.43;1561245;92;21189;-75
2022/06/08 03:48:08;;;;;;;28.77;15.20;;;;;;;18.88;100.00;99791.41;1561639;92;21085;-74
2022/06/08 03:50:35;;;;;;;27.98;14.63;;;;;;;18.94;100.00;99783.61;1561447;91;21093;-74
2022/06/08 03:53:05;;;;;;;26.55;13.03;;;;;;;19.00;100.00;99783.21;1561352;92;21551;-74
2022/06/08 03:55:34;;;;;;;221.47;112.72;;;;;;;19.06;100.00;99780.38;1561287;92;21061;-75
2022/06/08 03:58:01;;;;;;;108.72;58.45;;;;;;;19.14;100.00;99779.20;1561355;92;21120;-75
2022/06/08 04:00:30;;;;;;;201.18;111.30;;;;;;;19.24;100.00;99786.88;1560675;92;21185;-75
2022/06/08 04:03:01;;;;;;;60.98;34.80;;;;;;;19.31;100.00;99786.23;1560220;92;21093;-75
2022/06/08 04:05:29;;;;;;;59.33;32.80;;;;;;;19.40;100.00;99785.36;1582531;90;21081;-74
2022/06/08 04:07:57;;;;;;;34.38;17.98;;;;;;;19.48;100.00;99792.71;1659004;84;21080;-74
2022/06/08 04:10:25;;;;;;;29.10;14.60;;;;;;;19.58;100.00;99788.55;1711202;84;21023;-74
2022/06/08 04:12:55;;;;;;;23.75;11.90;;;;;;;19.66;100.00;99782.18;1711149;84;21513;-74
2022/06/08 04:18:13;;;;;;;22.10;11.20;;;;;;;19.87;100.00;99788.20;1686727;84;21081;-74
2022/06/08 04:20:40;;;;;;;21.52;11.63;;;;;;;20.01;100.00;99795.63;1686739;84;21041;-75
2022/06/08 04:23:07;;;;;;;24.82;11.73;;;;;;;20.20;100.00;99801.83;1702726;84;21010;-74
2022/06/08 04:25:36;;;;;;;21.50;11.45;;;;;;;20.45;100.00;99801.03;1712572;83;21070;-74
2022/06/08 04:28:04;;;;;;;21.73;11.55;;;;;;;20.71;100.00;99818.06;1712956;84;21590;-75
2022/06/08 04:30:31;;;;;;;22.77;11.28;;;;;;;20.96;100.00;99826.52;1713320;84;21077;-76
2022/06/08 04:32:59;;;;;;;28.32;12.05;;;;;;;21.18;100.00;99833.56;1713528;84;21030;-75
2022/06/08 04:35:27;;;;;;;30.15;12.30;;;;;;;21.42;100.00;99842.51;1709124;83;21507;-76
2022/06/08 04:37:55;;;;;;;25.27;12.55;;;;;;;21.65;100.00;99846.23;1708168;84;21035;-76
2022/06/08 04:40:23;;;;;;;28.87;12.85;;;;;;;21.88;100.00;99843.87;1708399;84;21030;-75
2022/06/08 04:42:50;;;;;;;28.55;13.60;;;;;;;22.08;100.00;99846.95;1707933;84;21500;-75
2022/06/08 04:45:17;;;;;;;28.27;13.95;;;;;;;22.27;100.00;99852.20;1708233;84;21043;-75
2022/06/08 04:47:45;;;;;;;25.60;13.20;;;;;;;22.45;100.00;99851.08;1708188;84;21062;-75
2022/06/08 04:50:14;;;;;;;33.58;14.20;;;;;;;22.60;100.00;99851.30;1708193;84;21074;-75
2022/06/08 04:52:42;;;;;;;38.30;16.48;;;;;;;22.79;100.00;99858.72;1708319;84;21023;-76
2022/06/08 04:55:11;;;;;;;33.45;15.30;;;;;;;22.99;100.00;99853.98;1708307;84;21063;-74
2022/06/08 04:57:40;;;;;;;25.75;14.30;;;;;;;23.21;100.00;99861.42;1707943;84;21046;-75
2022/06/08 05:00:11;;;;;;;21.93;11.38;;;;;;;23.38;100.00;99864.10;1708446;84;21476;-76
2022/06/08 05:02:44;;;;;;;31.17;15.30;;;;;;;23.55;100.00;99868.11;1708189;84;21022;-74
2022/06/08 05:05:20;;;;;;;29.27;17.35;;;;;;;23.72;100.00;99867.45;1651678;87;21058;-79
2022/06/08 05:07:50;;;;;;;24.85;13.80;;;;;;;23.91;100.00;99867.94;1662426;86;21030;-83
2022/06/08 05:10:21;;;;;;;27.13;14.87;;;;;;;24.12;100.00;99873.07;1636491;86;21527;-77
2022/06/08 05:12:49;;;;;;;32.95;19.02;;;;;;;24.33;100.00;99868.52;1633472;88;21026;-76
2022/06/08 05:15:28;;;;;;;47.10;31.85;;;;;;;24.57;100.00;99868.95;1632219;88;21103;-75
2022/06/08 05:17:57;;;;;;;39.63;26.23;;;;;;;24.79;100.00;99873.51;1634271;88;21050;-75
2022/06/08 05:20:25;;;;;;;41.23;26.60;;;;;;;24.98;100.00;99871.08;1634309;88;21543;-79
2022/06/08 05:22:53;;;;;;;48.68;32.63;;;;;;;25.17;100.00;99871.42;1648802;86;21046;-74
2022/06/08 05:25:34;;;;;;;42.35;24.70;;;;;;;25.36;100.00;99874.56;1662332;86;21053;-77
2022/06/08 05:28:04;;;;;;;44.20;22.75;;;;;;;25.51;100.00;99875.95;1662485;86;21069;-76
2022/06/08 05:30:33;;;;;;;41.68;21.70;;;;;;;25.64;100.00;99880.14;1633726;86;21038;-79
2022/06/08 05:33:00;;;;;;;41.00;24.43;;;;;;;25.77;100.00;99878.20;1662461;86;21383;-78
2022/06/08 05:35:29;;;;;;;57.85;33.18;;;;;;;25.89;100.00;99881.27;1657430;85;21082;-78
2022/06/08 05:37:56;;;;;;;46.42;27.75;;;;;;;26.00;100.00;99880.18;1655998;87;21045;-77
2022/06/08 05:40:23;;;;;;;38.30;22.25;;;;;;;26.10;100.00;99881.56;1655777;87;21278;-77
2022/06/08 05:42:51;;;;;;;38.78;21.37;;;;;;;26.25;100.00;99878.50;1655839;87;21061;-77
2022/06/08 05:45:23;;;;;;;34.40;19.48;;;;;;;26.33;100.00;99868.25;1653236;87;21031;-75
2022/06/08 05:47:54;;;;;;;78.10;44.03;;;;;;;26.39;100.00;99877.38;1651677;87;21109;-78
2022/06/08 05:50:25;;;;;;;44.00;23.70;;;;;;;26.51;100.00;99870.41;1653077;87;20986;-78
2022/06/08 05:52:53;;;;;;;42.62;23.62;;;;;;;26.71;100.00;99870.11;1651882;87;21014;-78
2022/06/08 05:55:21;;;;;;;35.68;20.90;;;;;;;26.89;100.00;99872.81;1652437;87;21018;-78
2022/06/08 05:57:51;;;;;;;41.90;23.57;;;;;;;27.10;100.00;99876.33;1652363;87;21050;-77
2022/06/08 06:00:23;;;;;;;37.58;24.45;;;;;;;27.24;96.99;99872.37;1651485;87;21105;-73
2022/06/08 06:02:50;;;;;;;42.60;26.45;;;;;;;27.29;94.59;99865.44;1644155;87;21658;-74
2022/06/08 06:05:21;;;;;;;41.80;26.97;;;;;;;27.40;97.07;99868.41;1638093;87;21552;-73
2022/06/08 06:07:48;;;;;;;44.63;27.35;;;;;;;27.52;93.23;99864.47;1644053;87;21143;-77
2022/06/08 06:10:28;;;;;;;40.90;24.37;;;;;;;27.60;94.45;99865.22;1621328;87;21098;-77
2022/06/08 06:12:55;;;;;;;38.30;21.33;;;;;;;27.76;93.80;99861.77;1612643;89;21078;-77
2022/06/08 06:15:25;;;;;;;50.33;33.08;;;;;;;27.87;87.59;99860.59;1637845;87;21030;-77
2022/06/08 06:17:52;;;;;;;314.60;160.30;;;;;;;27.92;86.82;99852.78;1650587;87;21108;-75
2022/06/08 06:20:20;;;;;;;60.90;35.08;;;;;;;27.95;83.66;99855.80;1650941;87;21050;-75
2022/06/08 06:22:55;;;;;;;33.85;19.32;;;;;;;27.94;77.25;99856.09;1595359;87;21050;-76
2022/06/08 06:25:33;;;;;;;33.60;19.87;;;;;;;27.82;76.38;99854.50;1564924;92;21103;-77
2022/06/08 06:28:03;;;;;;;30.25;17.80;;;;;;;27.91;81.98;99853.35;1564968;92;21078;-77
2022/06/08 06:30:48;;;;;;;36.23;19.67;;;;;;;28.17;84.03;99853.09;1575068;91;21161;-76
2022/06/08 06:33:20;;;;;;;36.88;24.23;;;;;;;28.47;83.30;99855.30;1571582;91;21137;-77
2022/06/08 06:35:49;;;;;;;42.70;27.40;;;;;;;28.62;78.54;99843.22;1571016;91;21081;-75
2022/06/08 06:38:17;;;;;;;39.50;27.00;;;;;;;28.72;74.80;99845.86;1571851;91;21058;-77
2022/06/08 06:40:44;;;;;;;41.80;26.17;;;;;;;28.77;73.22;99843.02;1577616;91;21034;-80
2022/06/08 06:43:13;;;;;;;44.65;30.17;;;;;;;28.87;76.22;99845.67;1575638;91;21612;-77
2022/06/08 06:45:40;;;;;;;43.40;27.48;;;;;;;29.06;77.66;99840.72;1576028;91;21138;-76
2022/06/08 06:48:09;;;;;;;44.83;29.42;;;;;;;29.22;73.62;99842.75;1538097;93;21061;-77
2022/06/08 06:50:37;;;;;;;62.40;39.78;;;;;;;29.33;72.50;99831.72;1538656;93;21049;-78
2022/06/08 06:53:05;;;;;;;70.92;44.58;;;;;;;29.44;72.90;99840.17;1538323;93;21080;-79
2022/06/08 06:55:33;;;;;;;54.55;33.25;;;;;;;29.52;74.01;99835.31;1538534;93;21105;-83
2022/06/08 06:58:01;;;;;;;39.03;25.10;;;;;;;29.70;72.73;99833.63;1535611;93;21104;-77
2022/06/08 07:00:33;;;;;;;40.40;19.37;;;;;;;29.67;68.72;99833.41;1551392;92;21089;-77
2022/06/08 07:03:02;;;;;;;56.70;37.28;;;;;;;29.59;70.53;99830.77;1583348;90;21068;-76
2022/06/08 07:05:34;;;;;;;40.90;25.92;;;;;;;29.70;67.47;99833.63;1637738;86;21054;-75
2022/06/08 07:08:02;;;;;;;29.37;18.17;;;;;;;29.60;68.89;99835.77;1662439;86;21058;-79
2022/06/08 07:10:30;;;;;;;29.48;14.87;;;;;;;29.53;68.25;99837.53;1662763;86;21007;-78
2022/06/08 07:13:00;;;;;;;23.83;10.15;;;;;;;29.59;69.19;99832.16;1662841;86;21050;-77
2022/06/08 07:15:27;;;;;;;15.53;7.67;;;;;;;29.67;71.07;99832.84;1663108;86;21058;-78
2022/06/08 07:17:55;;;;;;;56.73;34.05;;;;;;;29.91;72.04;99834.15;1662761;86;21216;-81
2022/06/08 07:20:24;;;;;;;56.90;31.05;;;;;;;30.02;64.66;99829.80;1662679;86;21021;-76
2022/06/08 07:22:52;;;;;;;32.70;16.10;;;;;;;29.97;67.35;99828.48;1665737;86;20999;-77
2022/06/08 07:25:21;;;;;;;30.48;9.43;;;;;;;30.15;66.67;99824.80;1678523;84;21595;-75
2022/06/08 07:27:48;;;;;;;44.95;23.07;;;;;;;30.19;68.18;99830.04;1713910;84;21881;-76
2022/06/08 07:30:15;;;;;;;21.33;8.98;;;;;;;30.31;66.26;99828.13;1714146;84;21510;-72
2022/06/08 07:32:42;;;;;;;12.98;6.10;;;;;;;30.45;68.16;99825.37;1714081;84;21041;-74
2022/06/08 07:35:09;;;;;;;26.95;17.62;;;;;;;30.68;67.51;99826.31;1710067;83;21062;-74
2022/06/08 07:37:36;;;;;;;17.45;7.97;;;;;;;30.86;67.26;99820.34;1670622;86;21031;-74
2022/06/08 07:40:06;;;;;;;20.43;7.25;;;;;;;31.02;64.05;99823.11;1697523;84;21045;-73
2022/06/08 07:42:37;;;;;;;17.40;7.72;;;;;;;31.12;63.46;99812.84;1660335;84;21540;-74
2022/06/08 07:45:07;;;;;;;14.07;5.80;;;;;;;31.14;58.96;99814.17;1691434;84;21038;-75
2022/06/08 07:49:36;;;;;;;18.40;6.60;;;;;;;31.13;60.55;99816.72;1670730;84;21069;-79
2022/06/08 07:50:04;;;;;;;11.45;6.17;;;;;;;31.27;59.85;99815.84;1658890;86;21049;-73
2022/06/08 07:52:31;;;;;;;14.20;7.60;;;;;;;31.36;57.93;99809.75;1673923;84;21064;-78
2022/06/08 07:54:59;;;;;;;14.47;8.60;;;;;;;31.23;51.69;99813.70;1698969;84;21070;-77
2022/06/08 07:57:26;;;;;;;14.55;7.83;;;;;;;31.25;54.99;99814.76;1685462;84;21030;-77
2022/06/08 07:59:54;;;;;;;48.80;28.80;;;;;;;31.16;54.46;99809.09;1675596;84;20991;-76
2022/06/08 08:02:22;;;;;;;20.97;10.40;;;;;;;31.21;56.76;99805.37;1667566;86;21075;-77
2022/06/08 08:04:50;;;;;;;14.93;7.05;;;;;;;31.38;57.65;99812.50;1667079;86;21069;-76
2022/06/08 08:07:18;;;;;;;17.62;7.83;;;;;;;31.50;58.78;99804.15;1687593;84;21042;-77
2022/06/08 08:09:48;;;;;;;13.75;7.47;;;;;;;31.53;56.88;99804.92;1670678;84;21026;-77
2022/06/08 08:12:14;;;;;;;18.60;7.85;;;;;;;31.57;56.97;99796.99;1692809;83;20999;-78
2022/06/08 08:14:41;;;;;;;11.90;7.08;;;;;;;31.50;56.72;99800.80;1687478;84;21034;-79
2022/06/08 08:17:11;;;;;;;12.07;6.80;;;;;;;31.57;60.42;99791.95;1682552;84;21015;-77
2022/06/08 08:19:39;;;;;;;13.75;7.53;;;;;;;31.81;60.68;99786.05;1638012;86;21016;-79
2022/06/08 08:22:06;;;;;;;23.55;10.20;;;;;;;31.99;60.44;99782.77;1644577;86;21034;-76
2022/06/08 08:24:33;;;;;;;22.60;12.45;;;;;;;32.13;56.84;99786.33;1649901;86;21004;-75
2022/06/08 08:27:00;;;;;;;24.57;10.60;;;;;;;32.09;58.68;99783.11;1638570;86;21158;-76
2022/06/08 08:29:30;;;;;;;23.07;14.38;;;;;;;32.16;59.71;99779.28;1642397;86;21028;-77
2022/06/08 08:31:58;;;;;;;33.98;19.42;;;;;;;32.20;58.85;99777.47;1637596;86;20992;-76
2022/06/08 08:34:25;;;;;;;22.15;12.28;;;;;;;32.34;60.69;99778.77;1635686;86;21080;-74
2022/06/08 08:36:53;;;;;;;21.30;10.70;;;;;;;32.42;58.27;99778.54;1636976;86;21014;-74
2022/06/08 08:39:20;;;;;;;14.30;7.90;;;;;;;32.39;56.25;99787.58;1648762;86;21573;-76
2022/06/08 08:44:41;;;;;;;21.25;9.93;;;;;;;32.50;55.20;99770.76;1659633;86;21456;-75
2022/06/08 08:47:16;;;;;;;19.80;8.80;;;;;;;32.50;56.06;99771.58;1641011;87;21042;-77
2022/06/08 08:49:56;;;;;;;22.52;10.53;;;;;;;32.53;54.83;99770.12;1639168;87;21036;-75
2022/06/08 08:53:04;;;;;;;21.60;10.55;;;;;;;32.61;53.49;99774.92;1632471;87;20986;-75
2022/06/08 08:56:01;;;;;;;29.48;13.80;;;;;;;32.54;51.52;99775.95;1628026;88;21047;-78
2022/06/08 08:58:32;;;;;;;15.70;8.58;;;;;;;32.62;56.40;99765.98;1628222;88;21059;-75
2022/06/08 09:01:04;;;;;;;17.77;7.58;;;;;;;32.86;55.04;99769.12;1628391;88;21063;-76
2022/06/08 09:03:41;;;;;;;20.00;7.78;;;;;;;32.99;51.04;99774.34;1619628;88;21102;-77
2022/06/08 09:06:21;;;;;;;18.80;9.45;;;;;;;32.99;52.59;99762.30;1640686;87;21519;-73
2022/06/08 09:08:52;;;;;;;14.68;7.30;;;;;;;32.97;50.38;99761.25;1574217;91;21096;-75
2022/06/08 09:11:34;;;;;;;13.40;6.80;;;;;;;32.76;49.50;99760.22;1574407;90;21187;-77
2022/06/08 09:14:08;;;;;;;14.60;7.00;;;;;;;32.79;50.62;99749.19;1554033;91;21102;-81
2022/06/08 09:16:45;;;;;;;;;;;;;;;32.99;52.11;99754.75;1584958;90;21048;-77
2022/06/08 09:19:28;;;;;;;16.40;7.17;;;;;;;33.19;51.37;99743.48;1556855;92;20152;-75
2022/06/08 09:22:00;;;;;;;21.33;9.77;;;;;;;33.39;50.95;99740.58;1556605;92;21084;-77
2022/06/08 09:24:41;;;;;;;26.48;14.15;;;;;;;33.56;50.94;99740.33;1532365;94;21077;-87
2022/06/08 09:27:22;;;;;;;15.13;7.37;;;;;;;33.60;47.05;99744.09;1531977;94;21126;-83
2022/06/08 09:29:56;;;;;;;19.23;8.10;;;;;;;33.46;48.19;99738.67;1537357;93;21994;-83
2022/06/08 09:32:33;;;;;;;13.68;6.22;;;;;;;33.66;48.29;99734.37;1537729;93;21097;-82
2022/06/08 09:35:05;;;;;;;38.92;11.50;;;;;;;33.88;46.76;99732.52;1531222;93;21135;-80
2022/06/08 09:37:33;;;;;;;117.37;70.60;;;;;;;33.96;46.03;99735.30;1461067;98;21063;-83
2022/06/08 09:40:01;;;;;;;501.33;262.27;;;;;;;33.98;44.59;99738.58;1460060;98;21750;-80
2022/06/08 09:42:58;;;;;;;41.13;22.27;;;;;;;33.54;42.10;99735.05;1460794;98;21167;-79
2022/06/08 09:45:43;;;;;;;34.38;10.68;;;;;;;33.29;45.81;99739.54;1464839;98;21146;-77
2022/06/08 09:52:14;;;;;;;23.18;7.90;;;;;;;33.30;45.94;99727.16;1443849;98;21102;-76
2022/06/08 09:54:47;;;;;;;16.25;7.40;;;;;;;33.46;46.48;99735.28;1443998;99;21189;-75
2022/06/08 09:57:30;;;;;;;12.35;6.20;;;;;;;33.65;45.22;99730.72;1410067;102;21137;-77
2022/06/08 10:00:22;;;;;;;11.63;6.25;;;;;;;33.77;41.57;99724.47;1440524;99;21123;-76
2022/06/08 10:03:17;;;;;;;12.30;6.40;;;;;;;33.76;43.26;99717.20;1416605;101;21172;-75
2022/06/08 10:06:00;;;;;;;26.97;13.18;;;;;;;33.86;41.75;99717.42;1369711;105;21174;-74
2022/06/08 10:08:48;;;;;;;71.40;41.50;;;;;;;34.04;45.00;99713.97;1362043;103;21167;-74
2022/06/08 10:11:39;;;;;;;21.90;11.80;;;;;;;33.96;40.98;99714.82;1373100;104;21636;-74
2022/06/08 10:14:35;;;;;;;18.48;8.13;;;;;;;33.71;40.58;99716.56;1389428;102;21217;-74
2022/06/08 10:17:10;;;;;;;24.25;10.58;;;;;;;33.71;44.91;99713.76;1384942;104;21259;-76
2022/06/08 10:20:19;;;;;;;18.05;7.05;;;;;;;33.63;41.25;99709.22;1338732;107;21198;-78
2022/06/08 10:22:52;;;;;;;23.10;6.87;;;;;;;33.44;43.38;99715.19;1292729;109;21161;-74
2022/06/08 10:25:33;;;;;;;15.32;6.28;;;;;;;33.48;44.89;99709.73;1302837;108;21239;-77
2022/06/08 10:28:04;;;;;;;10.50;5.95;;;;;;;33.65;43.40;99704.09;1321224;106;21184;-79
2022/06/08 10:30:42;;;;;;;24.30;11.88;;;;;;;33.75;41.97;99699.30;1333147;108;21179;-79
2022/06/08 10:33:34;;;;;;;41.85;23.75;;;;;;;33.81;43.27;99704.41;1338703;107;21665;-78
2022/06/08 10:36:02;;;;;;;22.70;11.33;;;;;;;33.68;42.64;99698.45;1351728;106;21204;-77
2022/06/08 10:38:33;;;;;;;14.53;7.00;;;;;;;33.62;41.34;99690.73;1350099;106;21186;-78
2022/06/08 10:44:37;;;;;;;138.55;79.40;;;;;;;33.51;42.40;99691.45;1350475;105;21172;-74
2022/06/08 10:47:29;;;;;;;58.38;38.17;;;;;;;33.75;44.34;99683.89;1370485;99;21118;-75
2022/06/08 10:50:08;;;;;;;107.00;71.72;;;;;;;34.03;41.56;99688.47;1393581;103;21095;-72
2022/06/08 10:52:45;;;;;;;51.33;32.45;;;;;;;33.91;38.31;99692.56;1393380;103;21697;-77
2022/06/08 10:55:21;;;;;;;15.55;7.58;;;;;;;33.76;41.24;99693.37;1397700;102;21056;-76
2022/06/08 10:58:06;;;;;;;12.70;6.60;;;;;;;33.77;37.79;99690.83;1414695;101;21619;-77
2022/06/08 11:00:59;;;;;;;16.52;6.85;;;;;;;33.64;39.70;99683.41;1431061;98;21407;-80
2022/06/08 11:03:45;;;;;;;20.65;9.53;;;;;;;33.67;41.18;99686.39;1449217;98;21147;-75
2022/06/08 11:06:47;;;;;;;18.02;8.63;;;;;;;33.83;39.91;99681.05;1462627;97;21074;-74
2022/06/08 11:09:35;;;;;;;21.65;7.28;;;;;;;33.90;40.94;99678.32;1460729;98;21179;-76
2022/06/08 11:12:17;;;;;;;16.75;8.03;;;;;;;34.28;40.40;99673.27;1430858;99;21290;-74
2022/06/08 11:14:52;;;;;;;20.23;9.38;;;;;;;34.48;39.21;99671.09;1428661;100;21110;-72
2022/06/08 11:17:34;;;;;;;23.65;9.00;;;;;;;34.60;39.84;99671.17;1482937;92;21121;-74
2022/06/08 11:20:20;;;;;;;19.37;6.67;;;;;;;34.61;38.47;99673.39;1491919;96;21142;-78
2022/06/08 11:22:57;;;;;;;25.40;8.38;;;;;;;34.48;37.38;99670.28;1492160;96;21154;-74
2022/06/08 11:25:32;;;;;;;53.98;29.48;;;;;;;34.45;38.49;99670.36;1525096;92;21133;-75
2022/06/08 11:28:40;;;;;;;53.87;29.02;;;;;;;34.60;36.22;99675.94;1548619;91;21148;-77
2022/06/08 11:31:14;;;;;;;45.20;28.55;;;;;;;34.39;34.94;99674.55;1536083;92;21129;-79
2022/06/08 11:34:23;;;;;;;12.78;7.20;;;;;;;34.23;36.09;99668.11;1543784;92;21080;-74
2022/06/08 11:37:17;;;;;;;22.13;7.35;;;;;;;34.17;36.18;99661.59;1490032;93;21100;-76
2022/06/08 11:40:10;;;;;;;16.50;8.18;;;;;;;34.13;38.14;99669.86;1525318;94;21593;-77
2022/06/08 11:42:46;;;;;;;9.53;5.10;;;;;;;34.32;36.85;99669.47;1520223;94;21113;-75
2022/06/08 11:45:19;;;;;;;11.85;5.65;;;;;;;34.31;37.26;99662.78;1495317;95;21064;-75
2022/06/08 11:48:04;;;;;;;12.55;5.87;;;;;;;34.36;37.57;99656.98;1515562;91;21091;-74
2022/06/08 11:50:38;;;;;;;11.68;6.03;;;;;;;34.43;37.31;99653.05;1552385;92;21113;-76
2022/06/08 11:53:20;;;;;;;12.03;6.45;;;;;;;34.53;37.61;99651.25;1564834;91;21175;-77
2022/06/08 11:56:17;;;;;;;13.45;5.28;;;;;;;34.55;36.88;99653.13;1567763;92;21559;-74
2022/06/08 11:58:52;;;;;;;9.40;5.22;;;;;;;34.43;36.03;99652.45;1568090;91;21067;-80
2022/06/08 12:01:23;;;;;;;11.75;6.30;;;;;;;34.44;35.86;99651.90;1568144;92;21073;-78
2022/06/08 12:03:56;;;;;;;102.05;63.13;;;;;;;34.38;35.67;99651.84;1527575;94;21094;-79